sensor_id;sensor_type;location;lat;lon;timestamp;temperature;humidity
18712;DHT22;9485;49.386;8.674;2023-12-20T00:04:51;9.30;99.90
18712;DHT22;9485;49.386;8.674;2023-12-20T00:10:12;9.30;99.90
18712;DHT22;9485;49.386;8.674;2023-12-20T00:15:33;9.30;99.90
18712;DHT22;9485;49.386;8.674;2023-12-20T00:20:54;9.30;99.90
18712;DHT22;9485;49.386;8.674;2023-12-20T00:26:16;9.30;99.90
18712;DHT22;9485;49.386;8.674;2023-12-20T00:31:37;9.40;99.90
18712;DHT22;9485;49.386;8.674;2023-12-20T00:36:57;9.40;99.90
18712;DHT22;9485;49.386;8.674;2023-12-20T00:42:19;9.40;99.90
18712;DHT22;9485;49.386;8.674;2023-12-20T00:47:40;9.40;99.90
18712;DHT22;9485;49.386;8.674;2023-12-20T00:53:00;9.40;99.90
18712;DHT22;9485;49.386;8.674;2023-12-20T00:58:22;9.40;99.90
18712;DHT22;9485;49.386;8.674;2023-12-20T01:03:43;9.40;99.90
18712;DHT22;9485;49.386;8.674;2023-12-20T01:09:03;9.40;99.90
18712;DHT22;9485;49.386;8.674;2023-12-20T01:14:25;9.40;99.90
18712;DHT22;9485;49.386;8.674;2023-12-20T01:19:46;9.40;99.90
18712;DHT22;9485;49.386;8.674;2023-12-20T01:25:07;9.40;99.90
18712;DHT22;9485;49.386;8.674;2023-12-20T01:30:29;9.50;99.90
18712;DHT22;9485;49.386;8.674;2023-12-20T01:35:49;9.50;99.90
18712;DHT22;9485;49.386;8.674;2023-12-20T01:41:10;9.50;99.90
18712;DHT22;9485;49.386;8.674;2023-12-20T01:46:32;9.50;99.90
18712;DHT22;9485;49.386;8.674;2023-12-20T01:51:53;9.50;99.90
18712;DHT22;9485;49.386;8.674;2023-12-20T01:57:14;9.50;99.90
18712;DHT22;9485;49.386;8.674;2023-12-20T02:02:39;9.60;99.90
18712;DHT22;9485;49.386;8.674;2023-12-20T02:08:00;9.60;99.90
18712;DHT22;9485;49.386;8.674;2023-12-20T02:13:21;9.60;99.90
18712;DHT22;9485;49.386;8.674;2023-12-20T02:18:43;9.60;99.90
18712;DHT22;9485;49.386;8.674;2023-12-20T02:24:06;9.60;99.90
18712;DHT22;9485;49.386;8.674;2023-12-20T02:29:27;9.60;99.90
18712;DHT22;9485;49.386;8.674;2023-12-20T02:34:48;9.60;99.90
18712;DHT22;9485;49.386;8.674;2023-12-20T02:40:10;9.60;99.90
18712;DHT22;9485;49.386;8.674;2023-12-20T02:45:30;9.60;99.90
18712;DHT22;9485;49.386;8.674;2023-12-20T02:50:51;9.60;99.90
18712;DHT22;9485;49.386;8.674;2023-12-20T02:56:13;9.60;99.90
18712;DHT22;9485;49.386;8.674;2023-12-20T03:01:35;9.60;99.90
18712;DHT22;9485;49.386;8.674;2023-12-20T03:07:01;9.60;99.90
18712;DHT22;9485;49.386;8.674;2023-12-20T03:12:23;9.60;99.90
18712;DHT22;9485;49.386;8.674;2023-12-20T03:17:43;9.60;99.90
18712;DHT22;9485;49.386;8.674;2023-12-20T03:23:04;9.60;99.90
18712;DHT22;9485;49.386;8.674;2023-12-20T03:28:27;9.60;99.90
18712;DHT22;9485;49.386;8.674;2023-12-20T03:33:48;9.60;99.90
18712;DHT22;9485;49.386;8.674;2023-12-20T03:39:10;9.60;99.90
18712;DHT22;9485;49.386;8.674;2023-12-20T03:44:32;9.60;99.90
18712;DHT22;9485;49.386;8.674;2023-12-20T03:49:53;9.60;99.90
18712;DHT22;9485;49.386;8.674;2023-12-20T03:55:13;9.60;99.90
18712;DHT22;9485;49.386;8.674;2023-12-20T04:00:35;9.60;99.90
18712;DHT22;9485;49.386;8.674;2023-12-20T04:05:56;9.60;99.90
18712;DHT22;9485;49.386;8.674;2023-12-20T04:11:16;9.70;99.90
18712;DHT22;9485;49.386;8.674;2023-12-20T04:16:38;9.70;99.90
18712;DHT22;9485;49.386;8.674;2023-12-20T04:21:59;9.70;99.90
18712;DHT22;9485;49.386;8.674;2023-12-20T04:27:19;9.70;99.90
18712;DHT22;9485;49.386;8.674;2023-12-20T04:32:41;9.70;99.90
18712;DHT22;9485;49.386;8.674;2023-12-20T04:38:02;9.70;99.90
18712;DHT22;9485;49.386;8.674;2023-12-20T04:43:23;9.70;99.90
18712;DHT22;9485;49.386;8.674;2023-12-20T04:48:45;9.70;99.90
18712;DHT22;9485;49.386;8.674;2023-12-20T04:54:05;9.70;99.90
18712;DHT22;9485;49.386;8.674;2023-12-20T04:59:26;9.70;99.90
18712;DHT22;9485;49.386;8.674;2023-12-20T05:04:48;9.70;99.90
18712;DHT22;9485;49.386;8.674;2023-12-20T05:10:09;9.80;99.90
18712;DHT22;9485;49.386;8.674;2023-12-20T05:15:29;9.80;99.90
18712;DHT22;9485;49.386;8.674;2023-12-20T05:20:51;9.80;99.90
18712;DHT22;9485;49.386;8.674;2023-12-20T05:26:12;9.80;99.90
18712;DHT22;9485;49.386;8.674;2023-12-20T05:31:33;9.80;99.90
18712;DHT22;9485;49.386;8.674;2023-12-20T05:36:54;9.90;99.90
18712;DHT22;9485;49.386;8.674;2023-12-20T05:42:15;9.90;99.90
18712;DHT22;9485;49.386;8.674;2023-12-20T05:47:35;9.90;99.90
18712;DHT22;9485;49.386;8.674;2023-12-20T05:52:57;9.90;99.90
18712;DHT22;9485;49.386;8.674;2023-12-20T05:58:18;9.90;99.90
18712;DHT22;9485;49.386;8.674;2023-12-20T06:03:41;10.00;99.90
18712;DHT22;9485;49.386;8.674;2023-12-20T06:09:03;10.00;99.90
18712;DHT22;9485;49.386;8.674;2023-12-20T06:14:23;10.00;99.90
18712;DHT22;9485;49.386;8.674;2023-12-20T06:19:44;10.00;99.90
18712;DHT22;9485;49.386;8.674;2023-12-20T06:25:08;10.00;99.90
18712;DHT22;9485;49.386;8.674;2023-12-20T06:30:29;10.00;99.90
18712;DHT22;9485;49.386;8.674;2023-12-20T06:35:51;10.00;99.90
18712;DHT22;9485;49.386;8.674;2023-12-20T06:41:15;10.10;99.90
18712;DHT22;9485;49.386;8.674;2023-12-20T06:46:36;10.10;99.90
18712;DHT22;9485;49.386;8.674;2023-12-20T06:51:56;10.10;99.90
18712;DHT22;9485;49.386;8.674;2023-12-20T06:57:18;10.00;99.90
18712;DHT22;9485;49.386;8.674;2023-12-20T07:02:39;10.00;99.90
18712;DHT22;9485;49.386;8.674;2023-12-20T07:08:00;10.00;99.90
18712;DHT22;9485;49.386;8.674;2023-12-20T07:13:21;10.00;99.90
18712;DHT22;9485;49.386;8.674;2023-12-20T07:18:42;9.90;99.90
18712;DHT22;9485;49.386;8.674;2023-12-20T07:24:03;9.80;99.90
18712;DHT22;9485;49.386;8.674;2023-12-20T07:29:25;9.70;99.90
18712;DHT22;9485;49.386;8.674;2023-12-20T07:34:45;9.60;99.90
18712;DHT22;9485;49.386;8.674;2023-12-20T07:40:07;9.60;99.90
18712;DHT22;9485;49.386;8.674;2023-12-20T07:45:29;9.50;99.90
18712;DHT22;9485;49.386;8.674;2023-12-20T07:50:50;9.40;99.90
18712;DHT22;9485;49.386;8.674;2023-12-20T07:56:15;9.40;99.90
18712;DHT22;9485;49.386;8.674;2023-12-20T08:01:37;9.40;99.90
18712;DHT22;9485;49.386;8.674;2023-12-20T08:06:58;9.30;99.90
18712;DHT22;9485;49.386;8.674;2023-12-20T08:12:19;9.30;99.90
18712;DHT22;9485;49.386;8.674;2023-12-20T08:17:41;9.30;99.90
18712;DHT22;9485;49.386;8.674;2023-12-20T08:23:01;9.30;99.90
18712;DHT22;9485;49.386;8.674;2023-12-20T08:28:22;9.40;99.90
18712;DHT22;9485;49.386;8.674;2023-12-20T08:33:45;9.40;99.90
18712;DHT22;9485;49.386;8.674;2023-12-20T08:39:06;9.60;99.90
18712;DHT22;9485;49.386;8.674;2023-12-20T08:44:27;9.60;99.90
18712;DHT22;9485;49.386;8.674;2023-12-20T08:49:49;9.80;99.90
18712;DHT22;9485;49.386;8.674;2023-12-20T08:55:09;9.90;99.90
18712;DHT22;9485;49.386;8.674;2023-12-20T09:00:30;9.90;99.90
18712;DHT22;9485;49.386;8.674;2023-12-20T09:05:52;10.00;99.90
18712;DHT22;9485;49.386;8.674;2023-12-20T09:11:13;10.00;99.90
18712;DHT22;9485;49.386;8.674;2023-12-20T09:16:34;10.00;99.90
18712;DHT22;9485;49.386;8.674;2023-12-20T09:21:56;10.10;99.90
18712;DHT22;9485;49.386;8.674;2023-12-20T09:27:16;10.10;99.90
18712;DHT22;9485;49.386;8.674;2023-12-20T09:32:37;10.10;99.90
18712;DHT22;9485;49.386;8.674;2023-12-20T09:37:59;10.10;99.90
18712;DHT22;9485;49.386;8.674;2023-12-20T09:43:20;10.20;99.90
18712;DHT22;9485;49.386;8.674;2023-12-20T09:48:41;10.30;99.90
18712;DHT22;9485;49.386;8.674;2023-12-20T09:54:05;10.40;99.90
18712;DHT22;9485;49.386;8.674;2023-12-20T09:59:25;10.50;99.90
18712;DHT22;9485;49.386;8.674;2023-12-20T10:04:47;10.50;99.90
18712;DHT22;9485;49.386;8.674;2023-12-20T10:10:10;10.60;99.90
18712;DHT22;9485;49.386;8.674;2023-12-20T10:15:33;10.60;99.90
18712;DHT22;9485;49.386;8.674;2023-12-20T10:20:54;10.60;99.90
18712;DHT22;9485;49.386;8.674;2023-12-20T10:26:20;10.60;99.90
18712;DHT22;9485;49.386;8.674;2023-12-20T10:31:42;10.70;99.90
18712;DHT22;9485;49.386;8.674;2023-12-20T10:37:04;10.80;99.90
18712;DHT22;9485;49.386;8.674;2023-12-20T10:42:26;10.90;99.90
18712;DHT22;9485;49.386;8.674;2023-12-20T10:47:47;10.90;99.90
18712;DHT22;9485;49.386;8.674;2023-12-20T10:53:10;11.00;99.90
18712;DHT22;9485;49.386;8.674;2023-12-20T10:58:36;11.10;99.90
18712;DHT22;9485;49.386;8.674;2023-12-20T11:04:00;11.10;99.90
18712;DHT22;9485;49.386;8.674;2023-12-20T11:09:33;11.20;99.90
18712;DHT22;9485;49.386;8.674;2023-12-20T11:15:00;11.20;99.90
18712;DHT22;9485;49.386;8.674;2023-12-20T11:20:23;11.10;99.90
18712;DHT22;9485;49.386;8.674;2023-12-20T11:25:48;11.10;99.90
18712;DHT22;9485;49.386;8.674;2023-12-20T11:31:14;11.10;99.90
18712;DHT22;9485;49.386;8.674;2023-12-20T11:36:36;11.10;99.90
18712;DHT22;9485;49.386;8.674;2023-12-20T11:41:56;11.10;99.90
18712;DHT22;9485;49.386;8.674;2023-12-20T11:47:18;11.10;99.90
18712;DHT22;9485;49.386;8.674;2023-12-20T11:52:39;11.10;99.90
18712;DHT22;9485;49.386;8.674;2023-12-20T11:58:00;11.10;99.90
18712;DHT22;9485;49.386;8.674;2023-12-20T12:03:22;11.10;99.90
18712;DHT22;9485;49.386;8.674;2023-12-20T12:08:43;11.10;99.90
18712;DHT22;9485;49.386;8.674;2023-12-20T12:14:03;11.20;99.90
18712;DHT22;9485;49.386;8.674;2023-12-20T12:19:26;11.30;99.90
18712;DHT22;9485;49.386;8.674;2023-12-20T12:24:48;11.40;99.90
18712;DHT22;9485;49.386;8.674;2023-12-20T12:30:10;11.40;99.90
18712;DHT22;9485;49.386;8.674;2023-12-20T12:35:33;11.40;99.90
18712;DHT22;9485;49.386;8.674;2023-12-20T12:40:54;11.30;99.90
18712;DHT22;9485;49.386;8.674;2023-12-20T12:46:15;11.30;99.90
18712;DHT22;9485;49.386;8.674;2023-12-20T12:51:37;11.30;99.90
18712;DHT22;9485;49.386;8.674;2023-12-20T12:56:58;11.20;99.90
18712;DHT22;9485;49.386;8.674;2023-12-20T13:02:18;11.20;99.90
18712;DHT22;9485;49.386;8.674;2023-12-20T13:07:40;11.20;99.90
18712;DHT22;9485;49.386;8.674;2023-12-20T13:13:04;11.10;99.90
18712;DHT22;9485;49.386;8.674;2023-12-20T13:18:25;11.10;99.90
18712;DHT22;9485;49.386;8.674;2023-12-20T13:23:47;11.10;99.90
18712;DHT22;9485;49.386;8.674;2023-12-20T13:29:08;11.10;99.90
18712;DHT22;9485;49.386;8.674;2023-12-20T13:34:28;11.00;99.90
18712;DHT22;9485;49.386;8.674;2023-12-20T13:39:50;11.00;99.90
18712;DHT22;9485;49.386;8.674;2023-12-20T13:45:11;11.00;99.90
18712;DHT22;9485;49.386;8.674;2023-12-20T13:50:32;10.90;99.90
18712;DHT22;9485;49.386;8.674;2023-12-20T13:55:53;10.80;99.90
18712;DHT22;9485;49.386;8.674;2023-12-20T14:01:14;10.70;99.90
18712;DHT22;9485;49.386;8.674;2023-12-20T14:06:35;10.70;99.90
18712;DHT22;9485;49.386;8.674;2023-12-20T14:11:57;10.60;99.90
18712;DHT22;9485;49.386;8.674;2023-12-20T14:17:17;10.60;99.90
18712;DHT22;9485;49.386;8.674;2023-12-20T14:22:38;10.60;99.90
18712;DHT22;9485;49.386;8.674;2023-12-20T14:28:05;10.80;99.90
18712;DHT22;9485;49.386;8.674;2023-12-20T14:33:25;10.70;99.90
18712;DHT22;9485;49.386;8.674;2023-12-20T14:38:46;10.70;99.90
18712;DHT22;9485;49.386;8.674;2023-12-20T14:44:10;10.70;99.90
18712;DHT22;9485;49.386;8.674;2023-12-20T14:49:30;10.70;99.90
18712;DHT22;9485;49.386;8.674;2023-12-20T14:54:51;10.70;99.90
18712;DHT22;9485;49.386;8.674;2023-12-20T15:00:13;10.70;99.90
18712;DHT22;9485;49.386;8.674;2023-12-20T15:05:35;10.70;99.90
18712;DHT22;9485;49.386;8.674;2023-12-20T15:10:56;10.80;99.90
18712;DHT22;9485;49.386;8.674;2023-12-20T15:16:19;10.80;99.90
18712;DHT22;9485;49.386;8.674;2023-12-20T15:21:40;10.80;99.90
18712;DHT22;9485;49.386;8.674;2023-12-20T15:27:01;10.80;99.90
18712;DHT22;9485;49.386;8.674;2023-12-20T15:32:24;10.80;99.90
18712;DHT22;9485;49.386;8.674;2023-12-20T15:37:44;10.80;99.90
18712;DHT22;9485;49.386;8.674;2023-12-20T15:43:05;10.70;99.90
18712;DHT22;9485;49.386;8.674;2023-12-20T15:48:27;10.70;99.90
18712;DHT22;9485;49.386;8.674;2023-12-20T15:53:48;10.70;99.90
18712;DHT22;9485;49.386;8.674;2023-12-20T15:59:09;10.70;99.90
18712;DHT22;9485;49.386;8.674;2023-12-20T16:04:31;10.70;99.90
18712;DHT22;9485;49.386;8.674;2023-12-20T16:09:51;10.70;99.90
18712;DHT22;9485;49.386;8.674;2023-12-20T16:15:11;10.70;99.90
18712;DHT22;9485;49.386;8.674;2023-12-20T16:20:33;10.80;99.90
18712;DHT22;9485;49.386;8.674;2023-12-20T16:25:54;10.80;99.90
18712;DHT22;9485;49.386;8.674;2023-12-20T16:31:14;10.80;99.90
18712;DHT22;9485;49.386;8.674;2023-12-20T16:36:50;10.80;99.90
18712;DHT22;9485;49.386;8.674;2023-12-20T16:42:11;10.80;99.90
18712;DHT22;9485;49.386;8.674;2023-12-20T16:47:32;10.80;99.90
18712;DHT22;9485;49.386;8.674;2023-12-20T16:52:54;10.80;99.90
18712;DHT22;9485;49.386;8.674;2023-12-20T16:58:14;10.80;99.90
18712;DHT22;9485;49.386;8.674;2023-12-20T17:03:37;10.80;99.90
18712;DHT22;9485;49.386;8.674;2023-12-20T17:08:59;10.80;99.90
18712;DHT22;9485;49.386;8.674;2023-12-20T17:14:19;10.80;99.90
18712;DHT22;9485;49.386;8.674;2023-12-20T17:19:40;10.80;99.90
18712;DHT22;9485;49.386;8.674;2023-12-20T17:25:04;10.80;99.90
18712;DHT22;9485;49.386;8.674;2023-12-20T17:30:25;10.90;99.90
18712;DHT22;9485;49.386;8.674;2023-12-20T17:35:46;10.90;99.90
18712;DHT22;9485;49.386;8.674;2023-12-20T17:41:08;10.90;99.90
18712;DHT22;9485;49.386;8.674;2023-12-20T17:46:29;10.90;99.90
18712;DHT22;9485;49.386;8.674;2023-12-20T17:51:50;11.00;99.90
18712;DHT22;9485;49.386;8.674;2023-12-20T17:57:12;11.00;99.90
18712;DHT22;9485;49.386;8.674;2023-12-20T18:02:32;11.00;99.90
18712;DHT22;9485;49.386;8.674;2023-12-20T18:07:53;11.00;99.90
18712;DHT22;9485;49.386;8.674;2023-12-20T18:13:14;11.00;99.90
18712;DHT22;9485;49.386;8.674;2023-12-20T18:18:35;11.00;99.90
18712;DHT22;9485;49.386;8.674;2023-12-20T18:23:56;11.00;99.90
18712;DHT22;9485;49.386;8.674;2023-12-20T18:29:18;11.00;99.90
18712;DHT22;9485;49.386;8.674;2023-12-20T18:34:39;11.00;99.90
18712;DHT22;9485;49.386;8.674;2023-12-20T18:39:59;11.10;99.90
18712;DHT22;9485;49.386;8.674;2023-12-20T18:45:21;11.10;99.90
18712;DHT22;9485;49.386;8.674;2023-12-20T18:50:41;11.00;99.90
18712;DHT22;9485;49.386;8.674;2023-12-20T18:56:01;11.00;99.90
18712;DHT22;9485;49.386;8.674;2023-12-20T19:01:23;11.00;99.90
18712;DHT22;9485;49.386;8.674;2023-12-20T19:06:44;10.90;99.90
18712;DHT22;9485;49.386;8.674;2023-12-20T19:12:04;10.80;99.90
18712;DHT22;9485;49.386;8.674;2023-12-20T19:17:27;10.80;99.90
18712;DHT22;9485;49.386;8.674;2023-12-20T19:22:47;10.70;99.90
18712;DHT22;9485;49.386;8.674;2023-12-20T19:28:08;10.70;99.90
18712;DHT22;9485;49.386;8.674;2023-12-20T19:33:35;10.70;99.90
18712;DHT22;9485;49.386;8.674;2023-12-20T19:38:56;10.70;99.90
18712;DHT22;9485;49.386;8.674;2023-12-20T19:44:16;10.70;99.90
18712;DHT22;9485;49.386;8.674;2023-12-20T19:49:40;10.70;99.90
18712;DHT22;9485;49.386;8.674;2023-12-20T19:55:01;10.70;99.90
18712;DHT22;9485;49.386;8.674;2023-12-20T20:00:21;10.80;99.90
18712;DHT22;9485;49.386;8.674;2023-12-20T20:05:44;10.80;99.90
18712;DHT22;9485;49.386;8.674;2023-12-20T20:11:04;10.90;99.90
18712;DHT22;9485;49.386;8.674;2023-12-20T20:16:25;10.90;99.90
18712;DHT22;9485;49.386;8.674;2023-12-20T20:21:46;10.90;99.90
18712;DHT22;9485;49.386;8.674;2023-12-20T20:27:07;10.90;99.90
18712;DHT22;9485;49.386;8.674;2023-12-20T20:32:27;10.90;99.90
18712;DHT22;9485;49.386;8.674;2023-12-20T20:37:49;10.90;99.90
18712;DHT22;9485;49.386;8.674;2023-12-20T20:43:10;10.90;99.90
18712;DHT22;9485;49.386;8.674;2023-12-20T20:48:31;10.90;99.90
18712;DHT22;9485;49.386;8.674;2023-12-20T20:53:52;10.90;99.90
18712;DHT22;9485;49.386;8.674;2023-12-20T20:59:13;10.90;99.90
18712;DHT22;9485;49.386;8.674;2023-12-20T21:04:33;10.90;99.90
18712;DHT22;9485;49.386;8.674;2023-12-20T21:09:55;10.80;99.90
18712;DHT22;9485;49.386;8.674;2023-12-20T21:15:15;10.80;99.90
18712;DHT22;9485;49.386;8.674;2023-12-20T21:20:36;10.80;99.90
18712;DHT22;9485;49.386;8.674;2023-12-20T21:25:58;10.70;99.90
18712;DHT22;9485;49.386;8.674;2023-12-20T21:31:21;10.70;99.90
18712;DHT22;9485;49.386;8.674;2023-12-20T21:36:42;10.60;99.90
18712;DHT22;9485;49.386;8.674;2023-12-20T21:42:05;10.60;99.90
18712;DHT22;9485;49.386;8.674;2023-12-20T21:47:27;10.50;99.90
18712;DHT22;9485;49.386;8.674;2023-12-20T21:52:47;10.50;99.90
18712;DHT22;9485;49.386;8.674;2023-12-20T21:58:10;10.40;99.90
18712;DHT22;9485;49.386;8.674;2023-12-20T22:03:30;10.40;99.90
18712;DHT22;9485;49.386;8.674;2023-12-20T22:08:50;10.40;99.90
18712;DHT22;9485;49.386;8.674;2023-12-20T22:14:12;10.40;99.90
18712;DHT22;9485;49.386;8.674;2023-12-20T22:19:33;10.40;99.90
18712;DHT22;9485;49.386;8.674;2023-12-20T22:24:54;10.40;99.90
18712;DHT22;9485;49.386;8.674;2023-12-20T22:30:16;10.40;99.90
18712;DHT22;9485;49.386;8.674;2023-12-20T22:35:36;10.40;99.90
18712;DHT22;9485;49.386;8.674;2023-12-20T22:40:57;10.40;99.90
18712;DHT22;9485;49.386;8.674;2023-12-20T22:46:19;10.40;99.90
18712;DHT22;9485;49.386;8.674;2023-12-20T22:51:39;10.40;99.90
18712;DHT22;9485;49.386;8.674;2023-12-20T22:57:00;10.40;99.90
18712;DHT22;9485;49.386;8.674;2023-12-20T23:02:21;10.50;99.90
18712;DHT22;9485;49.386;8.674;2023-12-20T23:07:42;10.50;99.90
18712;DHT22;9485;49.386;8.674;2023-12-20T23:13:03;10.50;99.90
18712;DHT22;9485;49.386;8.674;2023-12-20T23:18:25;10.50;99.90
18712;DHT22;9485;49.386;8.674;2023-12-20T23:23:45;10.50;99.90
18712;DHT22;9485;49.386;8.674;2023-12-20T23:29:06;10.40;99.90
18712;DHT22;9485;49.386;8.674;2023-12-20T23:34:28;10.40;99.90
18712;DHT22;9485;49.386;8.674;2023-12-20T23:39:49;10.30;99.90
18712;DHT22;9485;49.386;8.674;2023-12-20T23:45:09;10.30;99.90
18712;DHT22;9485;49.386;8.674;2023-12-20T23:50:31;10.30;99.90
18712;DHT22;9485;49.386;8.674;2023-12-20T23:55:52;10.30;99.90
